This is the latest recevied weather packets stored in our database for station/object DC7RY. If no packets are shown the sender has not sent any weather packets the latest 10 day(s).
| Time | Temp. | Humidity | Pressure | Rain* | Wind** | Luminosity | Snow |
|---|---|---|---|---|---|---|---|
| 1777280421 | 12.78° C | 48% | 1017.1 hPa | 0 mm | - | 144 W/m² | - |
| 1777279829 | 12.22° C | 48% | 1017.3 hPa | 0 mm | - | 100 W/m² | - |
| 1777279221 | 11.67° C | 48% | 1017.5 hPa | 0 mm | - | 84 W/m² | - |
| 1777278629 | 11.11° C | 50% | 1017.2 hPa | 0 mm | - | 104 W/m² | - |
| 1777278021 | 11.11° C | 49% | 1017.3 hPa | 0 mm | - | 76 W/m² | - |
| 1777277429 | 10.56° C | 55% | 1017.5 hPa | 0 mm | - | 72 W/m² | - |
| 1777276821 | 10.56° C | 55% | 1017.5 hPa | 0 mm | - | 60 W/m² | - |
| 1777276229 | 10.56° C | 56% | 1017.6 hPa | 0 mm | - | 53 W/m² | - |
| 1777275621 | 10.56° C | 55% | 1017.4 hPa | 0 mm | - | 48 W/m² | - |
| 1777275029 | 10.56° C | 57% | 1017.4 hPa | 0 mm | - | 49 W/m² | - |
| 1777274421 | 10° C | 55% | 1017.5 hPa | 0 mm | - | 49 W/m² | - |
| 1777273829 | 8.89° C | 57% | 1016.9 hPa | 0 mm | - | 69 W/m² | - |
| 1777273221 | 7.22° C | 64% | 1016.8 hPa | 0 mm | - | 86 W/m² | - |
| 1777272629 | 6.11° C | 68% | 1016.8 hPa | 0 mm | - | 65 W/m² | - |
| 1777272021 | 5° C | 71% | 1016.8 hPa | 0 mm | - | 44 W/m² | - |
| 1777271429 | 4.44° C | 75% | 1016.8 hPa | 0 mm | - | 42 W/m² | - |
| 1777270821 | 3.89° C | 79% | 1016.7 hPa | 0 mm | - | 35 W/m² | - |
| 1777270229 | 3.33° C | 80% | 1016.6 hPa | 0 mm | - | 31 W/m² | - |
| 1777269621 | 2.78° C | 83% | 1016.7 hPa | 0 mm | - | 29 W/m² | - |
| 1777269029 | 2.22° C | 85% | 1016.7 hPa | 0 mm | - | 28 W/m² | - |
| 1777268421 | 1.67° C | 89% | 1017 hPa | 0 mm | - | 27 W/m² | - |
| 1777267829 | 1.11° C | 89% | 1017.2 hPa | 0 mm | - | 25 W/m² | - |
| 1777267221 | 1.11° C | 90% | 1017.1 hPa | 0 mm | - | 23 W/m² | - |
| 1777266628 | 0.56° C | 91% | 1017.1 hPa | 0 mm | - | 22 W/m² | - |
| 1777266021 | 0° C | 93% | 1017.1 hPa | 0 mm | - | 20 W/m² | - |
* Rain latest hour (hover to see other rain measurements)
** Current wind speed in m/s (hover to see current wind gust speed)